Time;durP1;ratioP1;P1;durP2;ratioP2;P2;SDS_P1;SDS_P2;PMS_P1;PMS_P2;Temp;Humidity;BMP_temperature;BMP_pressure;BME280_temperature;BME280_humidity;BME280_pressure;Samples;Min_cycle;Max_cycle;Signal;HPM_P1;HPM_P2
2022/08/02 00:00:00;;;;;;;13.45;6.90;;;;;;;20.51;91.15;100556.19;1587354;88;25966;-83
2022/08/02 00:02:26;;;;;;;10.00;6.95;;;;;;;20.49;91.25;100551.53;1595290;88;25990;-83
2022/08/02 00:04:52;;;;;;;7.28;6.58;;;;;;;20.48;91.31;100553.45;1587107;88;25922;-84
2022/08/02 00:07:19;;;;;;;10.30;6.78;;;;;;;20.45;91.27;100558.03;1563557;89;27449;-83
2022/08/02 00:09:45;;;;;;;10.93;9.75;;;;;;;20.40;91.16;100559.31;1587429;88;26295;-83
2022/08/02 00:12:11;;;;;;;19.92;13.62;;;;;;;20.36;91.15;100560.09;1584211;88;25773;-83
2022/08/02 00:14:37;;;;;;;12.58;9.88;;;;;;;20.34;91.25;100564.41;1586711;88;26015;-83
2022/08/02 00:17:05;;;;;;;11.28;8.60;;;;;;;20.32;91.28;100563.00;1588664;88;25906;-82
2022/08/02 00:19:31;;;;;;;9.38;8.03;;;;;;;20.30;91.26;100563.27;1586590;88;28302;-83
2022/08/02 00:21:58;;;;;;;8.88;7.10;;;;;;;20.29;91.30;100568.96;1612924;87;26411;-83
2022/08/02 00:24:24;;;;;;;9.25;6.95;;;;;;;20.27;91.43;100572.47;1612301;87;26126;-83
2022/08/02 00:26:50;;;;;;;9.00;6.58;;;;;;;20.24;91.58;100572.43;1620043;87;25847;-83
2022/08/02 00:29:17;;;;;;;7.67;5.78;;;;;;;20.23;91.81;100570.77;1614551;87;25907;-83
2022/08/02 00:31:43;;;;;;;10.35;6.05;;;;;;;20.22;91.85;100573.75;1621154;87;27522;-83
2022/08/02 00:34:11;;;;;;;8.50;6.42;;;;;;;20.20;91.88;100571.29;1594989;88;25878;-83
2022/08/02 00:36:38;;;;;;;7.85;5.85;;;;;;;20.20;92.01;100569.93;1559607;91;25379;-84
2022/08/02 00:39:04;;;;;;;8.13;5.60;;;;;;;20.19;91.98;100564.72;1591227;88;25872;-83
2022/08/02 00:41:30;;;;;;;7.08;6.37;;;;;;;20.16;91.99;100566.03;1587720;88;25859;-84
2022/08/02 00:43:57;;;;;;;8.03;6.50;;;;;;;20.14;92.04;100572.27;1563550;90;27473;-83
2022/08/02 00:46:23;;;;;;;9.65;7.40;;;;;;;20.14;92.21;100568.71;1566332;90;25894;-83
2022/08/02 00:48:49;;;;;;;8.80;7.37;;;;;;;20.16;92.22;100573.36;1592742;88;25958;-83
2022/08/02 00:51:16;;;;;;;8.00;7.15;;;;;;;20.17;92.28;100572.27;1561379;90;26016;-83
2022/08/02 00:53:43;;;;;;;9.58;7.47;;;;;;;20.17;92.37;100574.47;1564717;88;26316;-83
2022/08/02 00:56:09;;;;;;;8.73;7.65;;;;;;;20.17;92.27;100576.35;1593031;88;27716;-82
2022/08/02 00:58:35;;;;;;;10.50;7.75;;;;;;;20.16;92.22;100584.24;1587217;88;26497;-83
2022/08/02 01:01:02;;;;;;;7.80;7.00;;;;;;;20.12;92.26;100581.73;1597314;88;26581;-83
2022/08/02 01:03:28;;;;;;;10.60;7.37;;;;;;;20.09;92.26;100578.14;1588884;88;26080;-83
2022/08/02 01:05:55;;;;;;;8.83;7.28;;;;;;;20.06;92.08;100584.10;1565588;90;26495;-83
2022/08/02 01:08:21;;;;;;;9.98;7.60;;;;;;;20.05;92.06;100581.08;1563685;90;27433;-83
2022/08/02 01:10:47;;;;;;;11.00;7.85;;;;;;;20.02;91.98;100584.31;1588087;88;26610;-83
2022/08/02 01:13:14;;;;;;;10.13;7.62;;;;;;;20.00;91.83;100588.62;1559716;91;25899;-82
2022/08/02 01:15:45;;;;;;;9.35;7.72;;;;;;;19.95;91.69;100586.64;1570857;90;25967;-83
2022/08/02 01:18:18;;;;;;;;;;;;;;;19.92;91.61;100584.97;1567926;90;25901;-83
2022/08/02 01:21:14;;;;;;;9.35;7.42;;;;;;;19.88;91.61;100590.61;1587707;88;27661;-83
2022/08/02 01:23:54;;;;;;;9.78;7.42;;;;;;;19.83;91.52;100594.59;1589359;88;25994;-83
2022/08/02 01:26:54;;;;;;;8.18;7.37;;;;;;;19.79;91.47;100599.72;1583521;88;25781;-84
2022/08/02 01:29:34;;;;;;;11.50;8.35;;;;;;;19.76;91.30;100601.55;1584684;88;25799;-83
2022/08/02 01:32:17;;;;;;;13.80;9.38;;;;;;;19.72;91.19;100601.77;1597374;88;25975;-83
2022/08/02 01:34:51;;;;;;;48.17;7.25;;;;;;;19.70;91.50;100610.70;1566245;89;27480;-83
2022/08/02 01:37:23;;;;;;;9.98;7.00;;;;;;;19.59;91.78;100608.07;1594302;88;25842;-83
2022/08/02 01:39:57;;;;;;;17.95;7.58;;;;;;;19.52;91.72;100602.80;1594558;88;26391;-83
2022/08/02 01:42:26;;;;;;;7.22;5.70;;;;;;;19.49;91.62;100611.94;1571250;89;25837;-84
2022/08/02 01:44:54;;;;;;;7.50;6.53;;;;;;;19.43;91.73;100610.21;1555066;90;26224;-83
2022/08/02 01:47:25;;;;;;;8.38;6.25;;;;;;;19.41;91.91;100615.06;1587895;88;27524;-83
2022/08/02 01:49:56;;;;;;;6.92;5.33;;;;;;;19.37;91.79;100617.98;1588713;88;26266;-83
2022/08/02 01:52:30;;;;;;;6.50;5.90;;;;;;;19.34;91.72;100617.06;1589883;88;25918;-83
2022/08/02 01:55:07;;;;;;;7.42;5.92;;;;;;;19.31;91.66;100616.21;1593868;88;26058;-83
2022/08/02 01:57:41;;;;;;;6.72;6.03;;;;;;;19.29;91.68;100615.63;1562802;89;26512;-84
2022/08/02 02:00:09;;;;;;;8.43;6.35;;;;;;;19.29;91.95;100615.08;1591445;88;28313;-83
2022/08/02 02:02:39;;;;;;;7.65;6.85;;;;;;;19.30;91.97;100615.38;1591258;88;25875;-83
2022/08/02 02:05:09;;;;;;;8.65;7.45;;;;;;;19.31;91.98;100613.50;1585617;88;25857;-83
2022/08/02 02:07:37;;;;;;;8.08;6.90;;;;;;;19.32;92.08;100616.48;1558878;90;25852;-83
2022/08/02 02:10:05;;;;;;;6.75;6.03;;;;;;;19.32;92.52;100613.77;1559146;89;26015;-82
2022/08/02 02:12:35;;;;;;;8.50;5.92;;;;;;;19.31;92.54;100610.78;1594119;88;28427;-82
2022/08/02 02:15:03;;;;;;;7.03;5.75;;;;;;;19.29;92.44;100613.72;1574197;89;26596;-82
2022/08/02 02:17:31;;;;;;;6.75;6.05;;;;;;;19.29;92.53;100608.84;1558754;90;26562;-83
2022/08/02 02:20:00;;;;;;;9.25;6.12;;;;;;;19.28;92.57;100605.30;1581808;89;26686;-83
2022/08/02 02:22:27;;;;;;;7.15;5.83;;;;;;;19.28;92.55;100600.39;1586631;88;26340;-83
2022/08/02 02:24:54;;;;;;;9.98;7.50;;;;;;;19.29;92.77;100604.21;1580701;88;27462;-82
2022/08/02 02:27:23;;;;;;;8.73;7.00;;;;;;;19.31;92.85;100603.44;1586214;88;26053;-83
2022/08/02 02:29:52;;;;;;;7.80;6.60;;;;;;;19.32;92.88;100596.12;1584901;88;25895;-83
2022/08/02 02:32:22;;;;;;;8.35;6.22;;;;;;;19.29;92.90;100595.27;1585513;88;26090;-83
2022/08/02 02:34:50;;;;;;;6.22;5.60;;;;;;;19.28;92.74;100597.15;1590213;88;25903;-83
2022/08/02 02:37:21;;;;;;;5.55;4.95;;;;;;;19.27;92.59;100595.48;1587444;88;28096;-82
2022/08/02 02:39:51;;;;;;;5.12;4.60;;;;;;;19.24;92.56;100598.70;1563903;90;26034;-82
2022/08/02 02:42:21;;;;;;;5.70;5.20;;;;;;;19.19;92.44;100601.31;1602839;88;25537;-83
2022/08/02 02:44:49;;;;;;;5.15;4.65;;;;;;;19.17;92.34;100601.56;1563689;90;25931;-83
2022/08/02 02:47:18;;;;;;;5.12;4.70;;;;;;;19.15;92.23;100598.80;1590408;88;26547;-83
2022/08/02 02:49:47;;;;;;;5.30;4.80;;;;;;;19.13;92.23;100595.50;1565332;90;27571;-83
2022/08/02 02:52:15;;;;;;;6.12;4.90;;;;;;;19.12;92.26;100598.74;1583863;88;25975;-82
2022/08/02 02:54:45;;;;;;;5.50;5.00;;;;;;;19.13;92.26;100596.86;1552499;90;26506;-82
2022/08/02 02:57:12;;;;;;;9.05;5.95;;;;;;;19.11;92.23;100595.75;1579860;88;25989;-83
2022/08/02 02:59:39;;;;;;;5.72;5.15;;;;;;;19.12;92.32;100600.63;1593312;88;25808;-83
2022/08/02 03:02:06;;;;;;;5.70;5.08;;;;;;;19.09;92.29;100600.60;1593048;88;27460;-82
2022/08/02 03:04:34;;;;;;;5.70;5.10;;;;;;;19.08;92.36;100604.38;1590204;88;26035;-83
2022/08/02 03:07:02;;;;;;;7.42;4.97;;;;;;;19.07;92.42;100603.27;1586175;88;25735;-83
2022/08/02 03:09:29;;;;;;;8.33;6.12;;;;;;;19.07;92.55;100602.73;1592525;88;25849;-82
2022/08/02 03:11:57;;;;;;;5.85;5.35;;;;;;;19.08;92.71;100613.04;1560421;90;25825;-82
2022/08/02 03:14:24;;;;;;;5.62;5.12;;;;;;;19.10;92.86;100609.55;1561034;90;27997;-83
2022/08/02 03:16:52;;;;;;;6.80;6.05;;;;;;;19.11;92.87;100611.22;1588460;88;25909;-83
2022/08/02 03:19:21;;;;;;;5.97;5.35;;;;;;;19.11;92.94;100613.92;1580470;88;25837;-83
2022/08/02 03:21:50;;;;;;;6.00;5.40;;;;;;;19.13;93.03;100613.16;1562186;90;25859;-82
2022/08/02 03:24:16;;;;;;;9.33;6.72;;;;;;;19.16;93.15;100609.97;1560205;90;25861;-82
2022/08/02 03:26:43;;;;;;;9.93;6.95;;;;;;;19.18;93.36;100609.19;1582377;88;27454;-82
2022/08/02 03:29:09;;;;;;;11.68;6.10;;;;;;;19.20;93.47;100607.85;1589989;88;26007;-82
2022/08/02 03:31:39;;;;;;;7.20;6.00;;;;;;;19.21;93.57;100606.80;1561724;90;26493;-82
2022/08/02 03:34:05;;;;;;;9.15;5.60;;;;;;;19.22;93.58;100615.78;1589042;88;26314;-82
2022/08/02 03:36:34;;;;;;;9.20;5.22;;;;;;;19.21;93.56;100616.30;1587953;88;26055;-82
2022/08/02 03:39:02;;;;;;;5.62;4.60;;;;;;;19.23;93.55;100620.95;1567604;89;27493;-83
2022/08/02 03:41:30;;;;;;;8.30;4.40;;;;;;;19.22;93.55;100618.50;1571868;89;26019;-82
2022/08/02 03:43:57;;;;;;;5.50;3.37;;;;;;;19.18;93.26;100614.62;1569017;89;25987;-82
2022/08/02 03:46:25;;;;;;;4.17;3.80;;;;;;;19.15;93.10;100615.09;1580623;89;26681;-83
2022/08/02 03:48:52;;;;;;;5.15;3.92;;;;;;;19.10;93.14;100617.17;1571167;90;26509;-82
2022/08/02 03:51:19;;;;;;;4.62;4.22;;;;;;;19.08;93.25;100619.83;1568957;89;27547;-83
2022/08/02 03:53:48;;;;;;;4.90;4.50;;;;;;;19.06;93.57;100614.65;1574731;89;25762;-83
2022/08/02 03:56:15;;;;;;;6.67;4.58;;;;;;;19.09;93.69;100621.49;1561472;90;25862;-82
2022/08/02 03:58:41;;;;;;;6.83;4.92;;;;;;;19.10;93.74;100621.24;1586825;88;25845;-83
2022/08/02 04:01:08;;;;;;;8.93;4.67;;;;;;;19.12;93.88;100620.47;1585975;88;25631;-82
2022/08/02 04:03:34;;;;;;;6.40;5.58;;;;;;;19.14;94.02;100625.12;1561098;90;27496;-82
2022/08/02 04:06:00;;;;;;;5.67;5.17;;;;;;;19.16;94.29;100625.70;1591829;88;25897;-84
2022/08/02 04:08:27;;;;;;;5.75;5.15;;;;;;;19.17;94.26;100623.81;1589666;88;26684;-83
2022/08/02 04:13:38;;;;;;;5.08;4.67;;;;;;;19.16;94.45;100630.33;1588782;88;25962;-81
2022/08/02 04:16:24;;;;;;;5.75;4.20;;;;;;;19.16;94.62;100633.05;1562571;90;28142;-83
2022/08/02 04:18:58;;;;;;;7.75;6.90;;;;;;;19.16;94.69;100640.64;1601562;88;25842;-83
2022/08/02 04:21:29;;;;;;;6.45;5.85;;;;;;;19.18;94.96;100645.84;1563314;89;25922;-83
2022/08/02 04:23:56;;;;;;;8.35;5.58;;;;;;;19.19;95.14;100646.95;1566132;89;26541;-83
2022/08/02 04:26:23;;;;;;;6.58;5.78;;;;;;;19.22;95.34;100649.73;1586236;88;25821;-82
2022/08/02 04:28:50;;;;;;;5.70;5.20;;;;;;;19.27;95.58;100649.00;1585896;88;27489;-83
2022/08/02 04:31:18;;;;;;;8.00;6.65;;;;;;;19.31;95.62;100655.59;1585315;88;25920;-83
2022/08/02 04:33:45;;;;;;;7.70;7.03;;;;;;;19.36;95.72;100657.06;1585353;88;25385;-83
2022/08/02 04:36:13;;;;;;;9.78;8.28;;;;;;;19.40;95.62;100667.73;1583277;88;26593;-83
2022/08/02 04:38:41;;;;;;;8.95;8.08;;;;;;;19.47;95.65;100669.78;1560709;90;25857;-83
2022/08/02 04:41:07;;;;;;;10.08;9.08;;;;;;;19.53;95.60;100670.16;1584597;88;27476;-83
2022/08/02 04:43:34;;;;;;;13.35;10.82;;;;;;;19.59;95.46;100669.21;1566214;90;26144;-83
2022/08/02 04:46:03;;;;;;;12.03;10.78;;;;;;;19.62;95.37;100676.86;1565961;89;25983;-84
2022/08/02 04:48:30;;;;;;;13.95;10.55;;;;;;;19.66;95.26;100680.73;1559289;90;25945;-84
2022/08/02 04:50:57;;;;;;;13.93;10.88;;;;;;;19.68;95.04;100678.06;1580031;88;25870;-83
2022/08/02 04:53:23;;;;;;;12.70;11.40;;;;;;;19.72;94.99;100673.78;1583318;88;27477;-84
2022/08/02 04:55:50;;;;;;;14.23;10.60;;;;;;;19.80;95.01;100682.89;1561292;90;25917;-83
2022/08/02 04:58:16;;;;;;;13.72;12.43;;;;;;;19.85;95.00;100682.16;1582780;88;26409;-83
2022/08/02 05:00:43;;;;;;;14.87;12.18;;;;;;;19.89;94.79;100680.60;1554822;90;25919;-83
2022/08/02 05:03:09;;;;;;;15.43;12.37;;;;;;;19.93;94.44;100685.86;1583831;90;25380;-83
2022/08/02 05:05:36;;;;;;;14.38;12.13;;;;;;;19.95;94.20;100687.23;1587094;88;27491;-84
2022/08/02 05:08:03;;;;;;;14.78;10.95;;;;;;;19.96;94.17;100686.19;1545637;90;26805;-83
2022/08/02 05:10:29;;;;;;;13.10;10.93;;;;;;;19.98;94.40;100694.92;1567084;90;26142;-84
2022/08/02 05:12:56;;;;;;;12.05;10.70;;;;;;;20.04;94.46;100699.09;1563922;89;26230;-83
2022/08/02 05:15:23;;;;;;;13.85;10.53;;;;;;;20.07;94.28;100691.79;1566971;89;25368;-83
2022/08/02 05:17:51;;;;;;;15.35;11.08;;;;;;;20.12;94.18;100701.41;1556462;90;27367;-83
2022/08/02 05:20:18;;;;;;;12.07;10.55;;;;;;;20.16;94.14;100697.95;1581379;88;26547;-83
2022/08/02 05:22:45;;;;;;;16.75;10.85;;;;;;;20.21;93.33;100699.40;1559789;90;25900;-84
2022/08/02 05:25:12;;;;;;;14.38;11.22;;;;;;;20.28;93.10;100706.04;1584939;88;26437;-83
2022/08/02 05:27:38;;;;;;;14.28;10.25;;;;;;;20.32;92.79;100703.94;1556054;90;26025;-83
2022/08/02 05:30:06;;;;;;;11.15;10.05;;;;;;;20.38;92.81;100707.02;1584777;88;27474;-84
2022/08/02 05:32:33;;;;;;;11.90;10.48;;;;;;;20.47;93.06;100707.43;1561228;90;25420;-83
2022/08/02 05:35:01;;;;;;;10.58;9.48;;;;;;;20.55;92.96;100706.47;1581992;89;25814;-83
2022/08/02 05:37:28;;;;;;;13.83;9.70;;;;;;;20.60;92.05;100705.73;1586034;88;25882;-84
2022/08/02 05:39:54;;;;;;;10.63;9.65;;;;;;;20.68;92.46;100714.83;1558551;90;26045;-83
2022/08/02 05:42:20;;;;;;;11.75;9.08;;;;;;;20.76;91.89;100714.42;1558430;90;28499;-83
2022/08/02 05:44:47;;;;;;;14.60;8.68;;;;;;;20.84;91.57;100715.88;1559273;90;25390;-83
2022/08/02 05:47:13;;;;;;;9.68;8.23;;;;;;;20.94;91.68;100714.11;1584941;88;25966;-83
2022/08/02 05:49:39;;;;;;;9.43;8.48;;;;;;;21.05;91.51;100713.21;1588111;88;25863;-84
2022/08/02 05:52:14;;;;;;;11.80;8.28;;;;;;;21.15;90.87;100718.78;1557460;90;25915;-84
2022/08/02 05:55:05;;;;;;;9.28;8.23;;;;;;;21.22;91.01;100725.41;1567988;90;27565;-84
2022/08/02 05:57:53;;;;;;;8.83;7.97;;;;;;;21.27;89.97;100724.95;1567864;90;26009;-83
2022/08/02 06:00:21;;;;;;;10.53;7.92;;;;;;;21.30;89.74;100729.05;1583343;88;25881;-84
2022/08/02 06:03:15;;;;;;;9.10;8.08;;;;;;;21.34;89.35;100724.77;1567242;90;26932;-83
2022/08/02 06:06:13;;;;;;;7.83;7.03;;;;;;;21.38;89.17;100730.78;1565927;89;26579;-83
2022/08/02 06:08:43;;;;;;;10.93;7.50;;;;;;;21.48;89.10;100734.19;1571383;89;28357;-82
2022/08/02 06:11:17;;;;;;;9.40;7.72;;;;;;;21.59;89.02;100738.68;1559409;90;26043;-82
2022/08/02 06:13:45;;;;;;;9.13;7.90;;;;;;;21.64;88.45;100731.09;1568825;88;26248;-83
2022/08/02 06:16:12;;;;;;;8.35;7.45;;;;;;;21.79;88.07;100743.53;1566731;90;26575;-83
2022/08/02 06:18:43;;;;;;;8.40;7.15;;;;;;;21.88;88.07;100742.83;1560669;90;25884;-83
2022/08/02 06:21:10;;;;;;;9.25;6.47;;;;;;;21.94;87.62;100745.09;1557128;90;27490;-82
2022/08/02 06:23:41;;;;;;;9.40;7.40;;;;;;;21.97;87.16;100749.48;1561107;90;26420;-83
2022/08/02 06:26:12;;;;;;;8.58;7.20;;;;;;;21.99;86.58;100750.58;1586608;88;25862;-82
2022/08/02 06:28:40;;;;;;;7.30;6.40;;;;;;;22.02;86.57;100759.09;1587410;88;25782;-82
2022/08/02 06:31:06;;;;;;;8.08;6.87;;;;;;;22.05;85.83;100763.18;1587397;88;25974;-83
2022/08/02 06:33:32;;;;;;;15.08;6.42;;;;;;;22.10;86.54;100761.34;1587963;88;27457;-83
2022/08/02 06:36:19;;;;;;;8.00;7.05;;;;;;;22.15;85.80;100760.00;1586527;88;25886;-83
2022/08/02 06:39:06;;;;;;;7.22;6.40;;;;;;;22.19;85.50;100764.42;1566787;88;25908;-83
2022/08/02 06:41:41;;;;;;;7.00;6.30;;;;;;;22.30;85.03;100763.44;1586704;88;26397;-83
2022/08/02 06:44:10;;;;;;;7.37;6.20;;;;;;;22.39;84.39;100756.96;1571815;89;25928;-83
2022/08/02 06:46:36;;;;;;;7.87;5.92;;;;;;;22.49;84.25;100766.05;1591888;88;27536;-83
2022/08/02 06:49:03;;;;;;;7.08;5.97;;;;;;;22.63;84.64;100768.64;1589321;87;25835;-83
2022/08/02 06:51:30;;;;;;;6.95;6.35;;;;;;;22.77;84.24;100771.76;1589891;87;25929;-84
2022/08/02 06:53:56;;;;;;;6.40;5.37;;;;;;;22.90;83.24;100778.14;1565450;89;25886;-83
2022/08/02 06:56:23;;;;;;;6.25;5.20;;;;;;;22.99;83.15;100779.26;1579471;89;25782;-84
2022/08/02 06:58:49;;;;;;;6.12;5.00;;;;;;;23.13;83.27;100783.19;1559883;90;27468;-84
2022/08/02 07:01:18;;;;;;;7.42;4.95;;;;;;;23.27;82.54;100782.15;1574316;89;25970;-83
2022/08/02 07:03:45;;;;;;;8.20;5.40;;;;;;;23.35;80.88;100787.97;1589564;88;25993;-83
2022/08/02 07:06:11;;;;;;;7.40;5.42;;;;;;;23.40;80.09;100788.00;1560626;89;25903;-83
2022/08/02 07:08:38;;;;;;;5.22;4.70;;;;;;;23.48;80.23;100782.02;1588181;87;25932;-83
2022/08/02 07:11:06;;;;;;;7.17;5.08;;;;;;;23.57;79.35;100786.42;1559740;90;27480;-84
2022/08/02 07:13:32;;;;;;;5.65;4.25;;;;;;;23.65;79.50;100779.09;1583835;88;25866;-83
2022/08/02 07:15:59;;;;;;;5.03;4.40;;;;;;;23.71;78.68;100776.11;1588691;88;25839;-84
2022/08/02 07:18:25;;;;;;;7.05;4.47;;;;;;;23.81;78.15;100779.95;1585736;88;25771;-83
2022/08/02 07:20:53;;;;;;;5.30;4.62;;;;;;;23.89;77.66;100780.81;1583967;88;25960;-83
2022/08/02 07:23:20;;;;;;;6.33;4.50;;;;;;;23.94;76.86;100782.17;1561521;90;27719;-83
2022/08/02 07:25:47;;;;;;;4.65;3.67;;;;;;;23.97;75.91;100775.63;1587333;88;26024;-83
2022/08/02 07:28:14;;;;;;;6.87;4.12;;;;;;;24.05;75.32;100772.92;1588459;88;25929;-83
2022/08/02 07:30:42;;;;;;;5.45;3.95;;;;;;;24.08;74.89;100784.72;1587642;88;25973;-83
2022/08/02 07:33:09;;;;;;;3.55;3.25;;;;;;;24.09;74.53;100781.70;1557090;90;25816;-83
2022/08/02 07:35:35;;;;;;;7.78;4.22;;;;;;;24.11;73.45;100787.72;1581700;88;28316;-82
2022/08/02 07:38:02;;;;;;;6.42;3.80;;;;;;;24.18;73.88;100781.98;1557562;90;26786;-84
2022/08/02 07:40:28;;;;;;;5.80;3.55;;;;;;;24.24;73.68;100781.72;1556253;90;25895;-83
2022/08/02 07:42:57;;;;;;;5.45;3.87;;;;;;;24.27;73.18;100781.16;1610085;87;25784;-83
2022/08/02 07:45:24;;;;;;;7.05;3.92;;;;;;;24.26;72.25;100776.80;1610912;87;25942;-83
2022/08/02 07:47:51;;;;;;;10.13;3.83;;;;;;;24.27;71.46;100780.36;1607221;87;28096;-83
2022/08/02 07:50:20;;;;;;;3.87;3.45;;;;;;;24.28;71.29;100775.97;1612936;87;25970;-83
2022/08/02 07:52:47;;;;;;;6.78;3.47;;;;;;;24.35;70.74;100782.55;1587872;88;26398;-83
2022/08/02 07:55:15;;;;;;;5.08;3.83;;;;;;;24.37;70.16;100778.98;1558952;89;25830;-83
2022/08/02 07:57:42;;;;;;;5.30;3.08;;;;;;;24.42;70.55;100775.69;1596635;88;25788;-84
2022/08/02 08:00:10;;;;;;;6.70;3.30;;;;;;;24.47;70.02;100771.59;1583831;88;28317;-83
2022/08/02 08:02:39;;;;;;;7.73;3.63;;;;;;;24.53;69.93;100777.88;1591711;88;25840;-84
2022/08/02 08:05:06;;;;;;;4.47;3.50;;;;;;;24.59;70.79;100778.18;1563814;90;26312;-83
2022/08/02 08:07:33;;;;;;;5.28;3.77;;;;;;;24.69;71.09;100780.08;1589586;88;25907;-83
2022/08/02 08:10:00;;;;;;;4.33;3.55;;;;;;;24.74;70.20;100777.34;1585218;88;26524;-83
2022/08/02 08:12:27;;;;;;;3.80;3.50;;;;;;;24.78;71.17;100784.77;1592815;88;28285;-81
2022/08/02 08:14:53;;;;;;;4.00;3.65;;;;;;;24.84;70.49;100782.30;1564899;90;25871;-83
2022/08/02 08:17:19;;;;;;;3.65;3.35;;;;;;;24.92;69.81;100785.01;1560814;89;26566;-83
2022/08/02 08:19:45;;;;;;;3.25;3.00;;;;;;;24.94;68.72;100786.37;1584600;88;25896;-82
2022/08/02 08:22:12;;;;;;;4.65;3.20;;;;;;;24.94;68.45;100787.75;1588144;88;25885;-83
2022/08/02 08:24:38;;;;;;;3.67;3.37;;;;;;;24.94;67.75;100780.89;1590909;88;28281;-83
2022/08/02 08:27:05;;;;;;;7.87;3.17;;;;;;;24.96;68.56;100785.55;1547092;89;26047;-83
2022/08/02 08:29:32;;;;;;;5.42;3.50;;;;;;;24.99;68.31;100785.55;1566860;89;25864;-83
2022/08/02 08:31:58;;;;;;;3.50;2.72;;;;;;;25.04;67.56;100788.30;1568174;89;26600;-82
2022/08/02 08:34:26;;;;;;;4.47;3.60;;;;;;;25.06;67.62;100786.09;1555207;90;25843;-81
2022/08/02 08:36:53;;;;;;;6.35;3.62;;;;;;;25.13;67.85;100792.09;1558191;89;47773;-81
2022/08/02 08:39:19;;;;;;;4.65;2.75;;;;;;;25.17;66.89;100800.05;1583592;89;25822;-79
2022/08/02 08:41:45;;;;;;;3.62;3.15;;;;;;;25.23;67.77;100794.25;1584952;88;25881;-80
2022/08/02 08:44:12;;;;;;;7.75;3.77;;;;;;;25.30;67.21;100798.07;1591233;88;25821;-82
2022/08/02 08:46:42;;;;;;;4.62;3.30;;;;;;;25.38;66.55;100797.52;1585537;88;25965;-82
2022/08/02 08:49:31;;;;;;;4.87;3.07;;;;;;;25.38;66.26;100801.63;1594084;88;28304;-82
2022/08/02 08:52:04;;;;;;;4.03;2.60;;;;;;;25.40;65.83;100802.17;1587957;88;25918;-82
2022/08/02 08:54:32;;;;;;;6.60;3.52;;;;;;;25.43;64.87;100795.34;1588131;88;26523;-82
2022/08/02 08:56:59;;;;;;;5.42;3.25;;;;;;;25.46;64.34;100801.62;1618376;86;26321;-82
2022/08/02 08:59:25;;;;;;;5.87;3.10;;;;;;;25.49;64.56;100799.13;1614528;87;25628;-83
2022/08/02 09:01:53;;;;;;;3.27;2.95;;;;;;;25.56;64.71;100798.30;1624272;87;27455;-82
2022/08/02 09:04:20;;;;;;;6.10;2.60;;;;;;;25.61;64.12;100802.94;1620710;87;25729;-82
2022/08/02 09:06:47;;;;;;;5.05;3.20;;;;;;;25.64;63.67;100803.77;1596015;88;25369;-82
2022/08/02 09:09:13;;;;;;;3.02;2.60;;;;;;;25.66;63.20;100802.93;1591345;88;25913;-82
2022/08/02 09:11:39;;;;;;;5.72;3.50;;;;;;;25.69;62.57;100800.98;1582002;88;25877;-83
2022/08/02 09:14:06;;;;;;;2.98;2.45;;;;;;;25.67;62.02;100801.81;1586492;88;28318;-82
2022/08/02 09:16:41;;;;;;;3.60;2.58;;;;;;;25.60;62.16;100806.80;1595110;88;25913;-82
2022/08/02 09:19:25;;;;;;;5.25;2.92;;;;;;;25.50;62.89;100811.77;1585873;88;25829;-83
2022/08/02 09:22:02;;;;;;;3.55;2.83;;;;;;;25.38;63.52;100820.83;1590432;88;25827;-82
2022/08/02 09:24:29;;;;;;;3.50;2.65;;;;;;;25.23;63.64;100820.30;1571346;89;25814;-82
2022/08/02 09:26:56;;;;;;;4.47;2.65;;;;;;;25.13;63.86;100818.95;1586688;88;27448;-82
2022/08/02 09:29:23;;;;;;;5.90;3.00;;;;;;;25.08;64.04;100825.02;1561640;90;25823;-82
2022/08/02 09:31:50;;;;;;;2.72;2.50;;;;;;;25.00;63.36;100820.09;1560728;90;26441;-82
2022/08/02 09:34:17;;;;;;;3.35;2.75;;;;;;;24.93;63.76;100824.48;1563314;90;25898;-82
2022/08/02 09:36:46;;;;;;;3.60;2.25;;;;;;;24.86;63.45;100820.37;1586664;88;25778;-83
2022/08/02 09:39:15;;;;;;;5.92;2.58;;;;;;;24.87;63.81;100823.40;1581838;88;27494;-82
2022/08/02 09:41:44;;;;;;;5.78;2.67;;;;;;;24.96;62.84;100824.46;1587091;88;25849;-82
2022/08/02 09:44:12;;;;;;;6.20;2.00;;;;;;;25.07;62.06;100818.70;1569419;90;26027;-82
2022/08/02 09:46:44;;;;;;;5.25;2.33;;;;;;;25.18;62.53;100820.33;1589476;88;25894;-82
2022/08/02 09:49:15;;;;;;;4.53;2.40;;;;;;;25.28;62.14;100823.58;1586645;88;26643;-82
2022/08/02 09:51:49;;;;;;;2.70;2.40;;;;;;;25.39;61.09;100827.11;1588839;88;27478;-82
2022/08/02 09:54:22;;;;;;;4.03;1.95;;;;;;;25.45;60.54;100830.97;1572971;89;25902;-83
2022/08/02 09:56:55;;;;;;;3.60;2.00;;;;;;;25.55;61.53;100817.24;1569151;89;26020;-82
2022/08/02 09:59:24;;;;;;;3.95;1.98;;;;;;;25.64;60.53;100818.85;1590649;88;26342;-83
2022/08/02 10:01:53;;;;;;;2.25;2.10;;;;;;;25.61;60.45;100820.77;1560012;90;26809;-82
2022/08/02 10:04:23;;;;;;;2.10;1.77;;;;;;;25.64;60.23;100819.65;1561429;90;27490;-82
2022/08/02 10:06:52;;;;;;;3.12;2.00;;;;;;;25.73;59.60;100821.27;1593081;88;27196;-82
2022/08/02 10:09:20;;;;;;;4.95;2.33;;;;;;;25.83;60.48;100816.55;1561530;90;26029;-82
2022/08/02 10:11:47;;;;;;;3.40;2.17;;;;;;;25.95;60.06;100813.48;1563335;90;25936;-82
2022/08/02 10:14:15;;;;;;;2.62;2.37;;;;;;;26.07;59.22;100813.15;1557626;90;25960;-82
2022/08/02 10:16:43;;;;;;;2.83;2.40;;;;;;;26.17;59.02;100822.17;1586465;88;26937;-82
2022/08/02 10:19:10;;;;;;;3.42;2.25;;;;;;;26.26;58.09;100820.44;1560335;90;25783;-81
2022/08/02 10:21:57;;;;;;;5.60;2.17;;;;;;;26.23;57.16;100827.06;1578598;89;25919;-82
2022/08/02 10:24:27;;;;;;;4.53;2.50;;;;;;;26.14;57.52;100820.53;1579509;89;26702;-83
2022/08/02 10:26:55;;;;;;;;;;;;;;;26.09;57.89;100815.88;1559261;90;25852;-82
2022/08/02 10:29:35;;;;;;;2.67;2.47;;;;;;;26.16;57.94;100816.94;1573364;89;27475;-82
2022/08/02 10:32:20;;;;;;;3.30;2.65;;;;;;;26.22;58.02;100817.20;1575154;89;25969;-82
2022/08/02 10:34:54;;;;;;;3.45;2.50;;;;;;;26.31;56.77;100818.22;1558527;89;25862;-82
2022/08/02 10:37:26;;;;;;;2.90;2.37;;;;;;;26.35;57.43;100817.91;1568633;89;25796;-82
2022/08/02 10:39:56;;;;;;;5.22;2.42;;;;;;;26.43;57.50;100816.75;1584426;88;27567;-82
2022/08/02 10:42:46;;;;;;;3.87;2.62;;;;;;;26.52;57.71;100821.91;1562405;90;28342;-82
2022/08/02 10:45:17;;;;;;;2.50;2.30;;;;;;;26.47;56.91;100819.77;1577861;89;25664;-82
2022/08/02 10:48:04;;;;;;;;;;;;;;;26.41;56.67;100820.91;1564597;90;25897;-82
2022/08/02 10:50:52;;;;;;;2.95;2.65;;;;;;;26.41;58.57;100824.45;1544381;90;26592;-84
2022/08/02 10:53:30;;;;;;;3.40;3.08;;;;;;;26.49;57.60;100814.80;1569316;89;25863;-82
2022/08/02 10:56:01;;;;;;;3.05;2.75;;;;;;;26.52;57.46;100809.55;1591025;88;27508;-83
2022/08/02 10:58:34;;;;;;;3.52;2.77;;;;;;;26.57;57.32;100814.19;1559305;90;26369;-82
2022/08/02 11:01:04;;;;;;;;;;;;;;;26.56;56.32;100802.36;1589377;88;25828;-83
2022/08/02 11:03:38;;;;;;;4.67;2.45;;;;;;;26.52;55.93;100806.80;1554205;90;26633;-83
2022/08/02 11:06:11;;;;;;;2.47;2.27;;;;;;;26.53;57.14;100811.20;1585891;88;26027;-83
2022/08/02 11:08:38;;;;;;;5.53;2.33;;;;;;;26.54;55.65;100812.00;1569676;89;28420;-83
2022/08/02 11:11:13;;;;;;;5.00;2.55;;;;;;;26.41;55.80;100816.22;1573929;89;25824;-82
2022/08/02 11:14:08;;;;;;;6.28;2.70;;;;;;;26.40;56.57;100812.39;1588499;88;25919;-83
2022/08/02 11:17:02;;;;;;;5.12;2.22;;;;;;;26.43;55.17;100808.51;1572250;90;26617;-83
2022/08/02 11:19:28;;;;;;;2.65;2.40;;;;;;;26.50;56.89;100800.77;1586610;88;25952;-83
2022/08/02 11:22:15;;;;;;;2.87;2.45;;;;;;;26.67;56.35;100803.09;1563333;90;28341;-83
2022/08/02 11:24:41;;;;;;;2.80;2.30;;;;;;;26.70;55.81;100804.73;1570898;89;26012;-83
2022/08/02 11:27:19;;;;;;;4.25;2.27;;;;;;;26.83;56.61;100801.91;1563208;90;26001;-83
2022/08/02 11:29:49;;;;;;;2.52;2.30;;;;;;;26.94;57.04;100801.25;1590701;88;25902;-83
2022/08/02 11:32:21;;;;;;;2.55;2.30;;;;;;;27.05;55.89;100808.29;1565789;89;26619;-83
2022/08/02 11:34:51;;;;;;;2.52;2.25;;;;;;;27.08;54.44;100804.94;1576161;89;27487;-83
2022/08/02 11:37:28;;;;;;;3.90;2.37;;;;;;;27.12;54.83;100804.62;1571160;89;26029;-83